createdAt,value
2018-02-01T00:01:26.060Z,99835.38
2018-02-01T00:03:56.346Z,99830.66
2018-02-01T00:06:26.660Z,99834.60
2018-02-01T00:08:56.995Z,99830.47
2018-02-01T00:11:27.538Z,99824.55
2018-02-01T00:13:57.729Z,99820.31
2018-02-01T00:16:28.113Z,99825.19
2018-02-01T00:18:58.443Z,99825.22
2018-02-01T00:21:28.707Z,99834.08
2018-02-01T00:23:58.838Z,99828.28
2018-02-01T00:26:30.744Z,99827.68
2018-02-01T00:29:00.942Z,99824.19
2018-02-01T00:31:31.802Z,99826.86
2018-02-01T00:34:02.146Z,99834.37
2018-02-01T00:36:32.612Z,99826.95
2018-02-01T00:39:09.568Z,99826.01
2018-02-01T00:41:39.911Z,99828.75
2018-02-01T00:44:10.145Z,99829.82
2018-02-01T00:46:40.560Z,99832.59
2018-02-01T00:49:10.746Z,99832.72
2018-02-01T00:51:41.004Z,99825.81
2018-02-01T00:54:11.256Z,99829.52
2018-02-01T00:56:41.582Z,99833.63
2018-02-01T00:59:13.160Z,99839.66
2018-02-01T01:01:43.270Z,99843.41
2018-02-01T01:04:13.735Z,99838.43
2018-02-01T01:06:44.044Z,99833.30
2018-02-01T01:09:14.320Z,99833.36
2018-02-01T01:11:44.809Z,99827.68
2018-02-01T01:14:15.409Z,99836.02
2018-02-01T01:16:45.958Z,99831.55
2018-02-01T01:19:16.522Z,99833.36
2018-02-01T01:21:46.885Z,99833.11
2018-02-01T01:24:18.838Z,99830.22
2018-02-01T01:26:49.027Z,99828.23
2018-02-01T01:29:19.405Z,99832.71
2018-02-01T01:31:49.503Z,99827.36
2018-02-01T01:34:20.404Z,99824.27
2018-02-01T01:36:50.697Z,99834.11
2018-02-01T01:39:21.199Z,99829.20
2018-02-01T01:41:52.294Z,99833.13
2018-02-01T01:44:22.640Z,99827.63
2018-02-01T01:46:53.241Z,99836.91
2018-02-01T01:49:23.798Z,99831.48
2018-02-01T01:51:54.080Z,99840.08
2018-02-01T01:54:24.571Z,99840.09
2018-02-01T01:56:54.835Z,99842.09
2018-02-01T01:59:25.297Z,99835.77
2018-02-01T02:01:55.112Z,99837.22
2018-02-01T02:04:24.959Z,99842.08
2018-02-01T02:06:55.501Z,99835.41
2018-02-01T02:09:25.579Z,99824.55
2018-02-01T02:11:55.536Z,99828.14
2018-02-01T02:14:25.449Z,99823.27
2018-02-01T02:16:56.124Z,99816.80
2018-02-01T02:19:25.956Z,99822.20
2018-02-01T02:21:55.880Z,99829.34
2018-02-01T02:24:25.831Z,99825.80
2018-02-01T02:26:56.553Z,99817.48
2018-02-01T02:29:27.222Z,99814.48
2018-02-01T02:31:57.052Z,99814.84
2018-02-01T02:34:27.203Z,99812.08
2018-02-01T02:36:57.213Z,99814.45
2018-02-01T02:39:27.074Z,99808.41
2018-02-01T02:41:56.968Z,99806.84
2018-02-01T02:44:26.949Z,99801.55
2018-02-01T02:46:56.894Z,99798.89
2018-02-01T02:49:26.883Z,99802.34
2018-02-01T02:51:56.708Z,99794.33
2018-02-01T02:54:26.637Z,99782.73
2018-02-01T02:56:57.204Z,99784.58
2018-02-01T02:59:27.337Z,99787.45
2018-02-01T03:01:57.253Z,99784.53
2018-02-01T03:04:27.275Z,99793.27
2018-02-01T03:06:57.095Z,99782.20
2018-02-01T03:09:27.004Z,99785.19
2018-02-01T03:11:56.864Z,99781.80
2018-02-01T03:14:27.763Z,99784.19
2018-02-01T03:16:57.551Z,99779.19
2018-02-01T03:19:27.431Z,99779.56
2018-02-01T03:21:58.017Z,99775.17
2018-02-01T03:24:27.919Z,99774.27
2018-02-01T03:26:57.933Z,99766.00
2018-02-01T03:29:27.851Z,99775.23
2018-02-01T03:31:57.802Z,99779.59
2018-02-01T03:34:27.740Z,99783.14
2018-02-01T03:36:58.558Z,99780.13
2018-02-01T03:39:28.766Z,99780.27
2018-02-01T03:41:58.750Z,99792.11
2018-02-01T03:44:28.671Z,99793.05
2018-02-01T03:46:58.678Z,99791.74
2018-02-01T03:49:28.555Z,99785.02
2018-02-01T03:51:58.486Z,99787.43
2018-02-01T03:54:29.639Z,99782.53
2018-02-01T03:57:00.276Z,99782.00
2018-02-01T03:59:30.336Z,99788.06
2018-02-01T04:02:00.112Z,99784.03
2018-02-01T04:04:30.242Z,99772.00
2018-02-01T04:07:00.031Z,99784.28
2018-02-01T04:09:30.769Z,99779.02
2018-02-01T04:12:00.636Z,99778.06
2018-02-01T04:14:30.596Z,99770.31
2018-02-01T04:17:00.451Z,99774.52
2018-02-01T04:19:30.417Z,99777.53
2018-02-01T04:22:01.095Z,99775.17
2018-02-01T04:24:30.873Z,99778.20
2018-02-01T04:27:00.896Z,99776.89
2018-02-01T04:29:30.905Z,99773.71
2018-02-01T04:32:01.172Z,99773.98
2018-02-01T04:34:30.953Z,99773.33
2018-02-01T04:37:01.035Z,99764.89
2018-02-01T04:39:30.889Z,99769.52
2018-02-01T04:42:00.788Z,99768.31
2018-02-01T04:44:31.911Z,99766.32
2018-02-01T04:47:02.503Z,99763.21
2018-02-01T04:49:32.316Z,99751.32
2018-02-01T04:52:02.751Z,99760.17
2018-02-01T04:54:32.741Z,99760.56
2018-02-01T04:57:02.577Z,99760.71
2018-02-01T04:59:32.911Z,99764.39
2018-02-01T05:02:02.818Z,99768.06
2018-02-01T05:04:32.638Z,99771.75
2018-02-01T05:07:02.671Z,99775.30
2018-02-01T05:09:33.600Z,99768.86
2018-02-01T05:12:03.508Z,99764.66
2018-02-01T05:14:33.625Z,99765.97
2018-02-01T05:17:03.776Z,99763.20
2018-02-01T05:19:33.594Z,99774.80
2018-02-01T05:22:04.111Z,99777.17
2018-02-01T05:24:34.255Z,99782.84
2018-02-01T05:27:05.077Z,99778.61
2018-02-01T05:29:34.949Z,99779.54
2018-02-01T05:32:04.903Z,99777.83
2018-02-01T05:34:34.747Z,99775.05
2018-02-01T05:37:04.737Z,99770.87
2018-02-01T05:39:34.558Z,99770.46
2018-02-01T05:42:05.273Z,99768.61
2018-02-01T05:44:35.318Z,99756.87
2018-02-01T05:47:05.103Z,99760.19
2018-02-01T05:49:34.952Z,99758.61
2018-02-01T05:52:04.981Z,99761.25
2018-02-01T05:54:34.922Z,99766.65
2018-02-01T05:57:05.647Z,99772.31
2018-02-01T05:59:36.296Z,99765.46
2018-02-01T06:02:06.198Z,99763.08
2018-02-01T06:04:36.886Z,99762.69
2018-02-01T06:07:06.854Z,99760.84
2018-02-01T06:09:36.774Z,99764.93
2018-02-01T06:12:06.671Z,99771.91
2018-02-01T06:14:37.554Z,99776.00
2018-02-01T06:17:07.469Z,99773.34
2018-02-01T06:19:37.417Z,99777.70
2018-02-01T06:22:08.069Z,99775.33
2018-02-01T06:24:38.627Z,99770.33
2018-02-01T06:27:08.500Z,99777.56
2018-02-01T06:29:38.374Z,99778.77
2018-02-01T06:32:08.201Z,99779.81
2018-02-01T06:34:38.407Z,99780.33
2018-02-01T06:37:08.321Z,99774.40
2018-02-01T06:39:38.180Z,99771.78
2018-02-01T06:42:08.955Z,99778.36
2018-02-01T06:44:38.863Z,99784.15
2018-02-01T06:47:09.621Z,99784.80
2018-02-01T06:49:39.539Z,99791.94
2018-02-01T06:52:09.446Z,99785.20
2018-02-01T06:54:39.361Z,99792.97
2018-02-01T06:57:09.930Z,99788.25
2018-02-01T06:59:40.099Z,99788.23
2018-02-01T07:02:10.207Z,99793.23
2018-02-01T07:04:40.048Z,99790.50
2018-02-01T07:07:10.157Z,99788.77
2018-02-01T07:09:40.090Z,99798.37
2018-02-01T07:12:09.961Z,99794.17
2018-02-01T07:14:40.538Z,99792.33
2018-02-01T07:17:10.434Z,99786.92
2018-02-01T07:19:40.569Z,99791.67
2018-02-01T07:22:10.472Z,99791.80
2018-02-01T07:24:40.290Z,99784.41
2018-02-01T07:27:10.130Z,99778.52
2018-02-01T07:29:40.215Z,99782.20
2018-02-01T07:32:10.347Z,99782.31
2018-02-01T07:34:40.109Z,99777.31
2018-02-01T07:37:10.687Z,99773.76
2018-02-01T07:39:40.511Z,99784.15
2018-02-01T07:42:10.425Z,99784.83
2018-02-01T07:44:40.240Z,99781.78
2018-02-01T07:47:10.268Z,99787.47
2018-02-01T07:49:40.225Z,99773.23
2018-02-01T07:52:10.928Z,99784.03
2018-02-01T07:54:40.917Z,99781.53
2018-02-01T07:57:11.344Z,99785.60
2018-02-01T07:59:41.688Z,99782.44
2018-02-01T08:02:12.156Z,99784.28
2018-02-01T08:04:44.186Z,99781.65
2018-02-01T08:07:15.535Z,99788.61
2018-02-01T08:09:46.236Z,99791.92
2018-02-01T08:12:16.576Z,99797.05
2018-02-01T08:14:47.132Z,99790.55
2018-02-01T08:17:17.655Z,99790.55
2018-02-01T08:19:48.053Z,99794.05
2018-02-01T08:22:18.586Z,99794.45
2018-02-01T08:24:49.184Z,99792.08
2018-02-01T08:27:19.550Z,99792.73
2018-02-01T08:29:50.141Z,99791.71
2018-02-01T08:32:20.819Z,99794.06
2018-02-01T08:34:51.009Z,99795.75
2018-02-01T08:37:21.386Z,99794.94
2018-02-01T08:39:52.038Z,99799.00
2018-02-01T08:42:23.145Z,99799.71
2018-02-01T08:44:53.983Z,99791.55
2018-02-01T08:47:24.497Z,99794.75
2018-02-01T08:49:54.926Z,99787.91
2018-02-01T08:52:25.695Z,99791.45
2018-02-01T08:54:56.212Z,99796.03
2018-02-01T08:57:26.686Z,99797.80
2018-02-01T08:59:57.146Z,99800.23
2018-02-01T09:02:27.664Z,99806.03
2018-02-01T09:04:59.087Z,99807.90
2018-02-01T09:07:30.340Z,99797.80
2018-02-01T09:10:00.776Z,99800.36
2018-02-01T09:12:31.200Z,99809.34
2018-02-01T09:15:01.757Z,99804.12
2018-02-01T09:17:32.311Z,99802.41
2018-02-01T09:20:02.781Z,99800.73
2018-02-01T09:22:33.346Z,99798.09
2018-02-01T09:25:03.680Z,99800.06
2018-02-01T09:27:34.142Z,99789.11
2018-02-01T09:30:04.661Z,99800.88
2018-02-01T09:32:35.026Z,99794.69
2018-02-01T09:35:06.277Z,99799.17
2018-02-01T09:37:37.188Z,99805.49
2018-02-01T09:40:07.505Z,99810.81
2018-02-01T09:42:38.882Z,99805.67
2018-02-01T09:45:10.021Z,99813.98
2018-02-01T09:47:41.086Z,99813.09
2018-02-01T09:50:11.424Z,99812.36
2018-02-01T09:52:42.034Z,99816.65
2018-02-01T09:55:12.421Z,99820.92
2018-02-01T09:57:42.767Z,99809.41
2018-02-01T10:00:13.859Z,99808.86
2018-02-01T10:02:44.413Z,99806.83
2018-02-01T10:05:14.777Z,99802.77
2018-02-01T10:07:46.070Z,99806.48
2018-02-01T10:10:16.437Z,99817.33
2018-02-01T10:12:47.468Z,99807.13
2018-02-01T10:15:18.656Z,99809.34
2018-02-01T10:17:49.186Z,99806.86
2018-02-01T10:20:19.531Z,99813.25
2018-02-01T10:22:49.696Z,99820.89
2018-02-01T10:25:20.745Z,99809.96
2018-02-01T10:27:52.180Z,99811.68
2018-02-01T10:30:22.327Z,99818.41
2018-02-01T10:32:53.388Z,99813.86
2018-02-01T10:35:23.857Z,99814.17
2018-02-01T10:37:54.068Z,99810.33
2018-02-01T10:40:24.648Z,99813.36
2018-02-01T10:42:55.801Z,99805.27
2018-02-01T10:45:26.184Z,99812.72
2018-02-01T10:47:56.445Z,99810.62
2018-02-01T10:50:27.372Z,99807.27
2018-02-01T10:52:57.679Z,99811.12
2018-02-01T10:55:27.513Z,99807.34
2018-02-01T10:57:57.372Z,99801.47
2018-02-01T11:00:27.255Z,99801.15
2018-02-01T11:02:57.990Z,99808.47
2018-02-01T11:05:28.856Z,99802.75
2018-02-01T11:07:58.678Z,99797.19
2018-02-01T11:10:28.657Z,99800.30
2018-02-01T11:12:59.291Z,99800.98
2018-02-01T11:15:30.058Z,99801.11
2018-02-01T11:18:00.000Z,99793.17
2018-02-01T11:20:30.769Z,99797.18
2018-02-01T11:23:01.501Z,99787.97
2018-02-01T11:25:31.437Z,99789.92
2018-02-01T11:28:01.292Z,99784.74
2018-02-01T11:30:31.364Z,99785.10
2018-02-01T11:33:01.960Z,99784.88
2018-02-01T11:35:31.771Z,99779.28
2018-02-01T11:38:02.013Z,99776.75
2018-02-01T11:40:32.044Z,99780.68
2018-02-01T11:43:02.907Z,99778.48
2018-02-01T11:45:32.813Z,99781.28
2018-02-01T11:48:02.722Z,99776.41
2018-02-01T11:50:34.285Z,99775.84
2018-02-01T11:53:04.090Z,99769.08
2018-02-01T11:55:34.128Z,99774.08
2018-02-01T11:58:04.035Z,99766.98
2018-02-01T12:00:33.921Z,99761.39
2018-02-01T12:03:04.646Z,99759.75
2018-02-01T12:05:34.544Z,99756.55
2018-02-01T12:08:04.499Z,99759.31
2018-02-01T12:10:35.354Z,99751.46
2018-02-01T12:13:05.229Z,99751.22
2018-02-01T12:15:35.958Z,99742.34
2018-02-01T12:18:05.907Z,99749.78
2018-02-01T12:20:36.540Z,99752.15
2018-02-01T12:23:07.357Z,99736.28
2018-02-01T12:25:37.316Z,99738.50
2018-02-01T12:28:07.175Z,99738.01
2018-02-01T12:30:37.704Z,99739.21
2018-02-01T12:33:08.764Z,99738.33
2018-02-01T12:35:39.375Z,99734.12
2018-02-01T12:38:09.194Z,99730.20
2018-02-01T12:40:40.663Z,99716.96
2018-02-01T12:43:11.331Z,99716.39
2018-02-01T12:45:41.176Z,99714.16
2018-02-01T12:48:11.204Z,99724.54
2018-02-01T12:50:41.136Z,99727.94
2018-02-01T12:53:11.814Z,99728.22
2018-02-01T12:55:41.961Z,99728.39
2018-02-01T12:58:11.948Z,99728.27
2018-02-01T13:00:43.894Z,99727.98
2018-02-01T13:03:13.788Z,99728.80
2018-02-01T13:05:44.532Z,99716.11
2018-02-01T13:08:14.491Z,99720.77
2018-02-01T13:10:44.317Z,99730.42
2018-02-01T13:13:14.233Z,99723.77
2018-02-01T13:15:44.379Z,99719.84
2018-02-01T13:18:14.727Z,99727.30
2018-02-01T13:20:44.736Z,99724.73
2018-02-01T13:23:14.615Z,99725.10
2018-02-01T13:25:44.688Z,99720.58
2018-02-01T13:28:15.086Z,99716.69
2018-02-01T13:30:45.115Z,99720.34
2018-02-01T13:33:16.087Z,99721.86
2018-02-01T13:35:45.918Z,99729.06
2018-02-01T13:38:16.139Z,99737.25
2018-02-01T13:40:46.619Z,99733.77
2018-02-01T13:43:16.803Z,99736.66
2018-02-01T13:45:46.898Z,99745.94
2018-02-01T13:48:16.836Z,99738.26
2018-02-01T13:50:46.851Z,99741.73
2018-02-01T13:53:17.224Z,99737.66
2018-02-01T13:55:48.183Z,99738.85
2018-02-01T13:58:18.076Z,99735.27
2018-02-01T14:00:48.989Z,99736.22
2018-02-01T14:03:19.063Z,99737.89
2018-02-01T14:05:49.363Z,99734.61
2018-02-01T14:08:19.471Z,99733.42
2018-02-01T14:10:49.477Z,99739.05
2018-02-01T14:13:23.631Z,99745.53
2018-02-01T14:15:54.357Z,99748.22
2018-02-01T14:18:25.206Z,99749.66
2018-02-01T14:20:56.072Z,99755.46
2018-02-01T14:23:25.920Z,99756.94
2018-02-01T14:25:55.824Z,99761.85
2018-02-01T14:28:25.880Z,99758.45
2018-02-01T14:30:56.664Z,99764.58
2018-02-01T14:33:26.609Z,99769.34
2018-02-01T14:35:56.640Z,99771.83
2018-02-01T14:38:26.565Z,99767.04
2018-02-01T14:40:56.458Z,99782.08
2018-02-01T14:43:26.407Z,99781.68
2018-02-01T14:45:57.113Z,99779.56
2018-02-01T14:48:27.198Z,99786.96
2018-02-01T14:50:57.329Z,99790.16
2018-02-01T14:53:27.482Z,99790.25
2018-02-01T14:55:57.341Z,99792.24
2018-02-01T14:58:27.291Z,99796.70
2018-02-01T15:00:57.177Z,99797.77
2018-02-01T15:03:27.123Z,99803.33
2018-02-01T15:05:57.103Z,99798.41
2018-02-01T15:08:26.992Z,99793.80
2018-02-01T15:10:57.730Z,99803.45
2018-02-01T15:13:28.411Z,99804.19
2018-02-01T15:15:58.482Z,99811.95
2018-02-01T15:18:29.176Z,99820.16
2018-02-01T15:20:59.205Z,99820.58
2018-02-01T15:23:29.272Z,99820.92
2018-02-01T15:25:59.245Z,99826.48
2018-02-01T15:28:29.243Z,99827.19
2018-02-01T15:30:59.409Z,99825.16
2018-02-01T15:33:29.327Z,99825.47
2018-02-01T15:35:59.221Z,99829.80
2018-02-01T15:38:29.103Z,99834.94
2018-02-01T15:40:59.404Z,99838.98
2018-02-01T15:43:29.585Z,99839.96
2018-02-01T15:45:59.673Z,99833.83
2018-02-01T15:48:30.191Z,99840.95
2018-02-01T15:51:00.239Z,99828.75
2018-02-01T15:53:30.188Z,99837.17
2018-02-01T15:56:01.165Z,99845.39
2018-02-01T15:58:31.400Z,99844.22
2018-02-01T16:01:01.319Z,99853.48
2018-02-01T16:03:31.246Z,99847.16
2018-02-01T16:06:01.079Z,99850.17
2018-02-01T16:08:31.795Z,99847.91
2018-02-01T16:11:01.696Z,99858.78
2018-02-01T16:13:31.765Z,99851.80
2018-02-01T16:16:01.832Z,99852.95
2018-02-01T16:18:32.161Z,99855.60
2018-02-01T16:21:02.206Z,99861.13
2018-02-01T16:23:32.379Z,99861.55
2018-02-01T16:26:02.271Z,99867.88
2018-02-01T16:28:32.349Z,99872.72
2018-02-01T16:31:02.275Z,99872.98
2018-02-01T16:33:32.118Z,99871.69
2018-02-01T16:36:02.124Z,99875.25
2018-02-01T16:38:32.043Z,99877.11
2018-02-01T16:41:02.768Z,99871.56
2018-02-01T16:43:33.487Z,99881.08
2018-02-01T16:46:03.540Z,99879.66
2018-02-01T16:48:33.414Z,99891.31
2018-02-01T16:51:03.319Z,99890.59
2018-02-01T16:53:33.337Z,99893.38
2018-02-01T16:56:03.301Z,99894.31
2018-02-01T16:58:33.262Z,99898.28
2018-02-01T17:01:03.228Z,99902.80
2018-02-01T17:03:33.205Z,99906.59
2018-02-01T17:06:03.262Z,99908.49
2018-02-01T17:08:33.330Z,99917.30
2018-02-01T17:11:03.314Z,99909.91
2018-02-01T17:13:34.313Z,99919.55
2018-02-01T17:16:04.246Z,99920.86
2018-02-01T17:18:34.486Z,99915.20
2018-02-01T17:21:04.570Z,99914.92
2018-02-01T17:23:34.790Z,99926.39
2018-02-01T17:26:04.974Z,99913.44
2018-02-01T17:28:35.782Z,99929.55
2018-02-01T17:31:06.034Z,99932.20
2018-02-01T17:33:36.738Z,99935.01
2018-02-01T17:36:06.584Z,99932.25
2018-02-01T17:38:36.551Z,99931.70
2018-02-01T17:41:06.432Z,99932.50
2018-02-01T17:43:36.994Z,99933.81
2018-02-01T17:46:06.864Z,99935.40
2018-02-01T17:48:36.923Z,99938.97
2018-02-01T17:51:07.164Z,99941.75
2018-02-01T17:53:37.406Z,99948.59
2018-02-01T17:56:08.150Z,99946.10
2018-02-01T17:58:39.012Z,99952.70
2018-02-01T18:01:09.142Z,99951.91
2018-02-01T18:03:39.257Z,99960.22
2018-02-01T18:06:09.596Z,99955.33
2018-02-01T18:08:39.701Z,99960.60
2018-02-01T18:11:09.721Z,99956.25
2018-02-01T18:13:39.897Z,99957.81
2018-02-01T18:16:10.510Z,99961.00
2018-02-01T18:18:40.708Z,99963.50
2018-02-01T18:21:10.707Z,99962.70
2018-02-01T18:23:40.703Z,99961.91
2018-02-01T18:26:11.345Z,99969.05
2018-02-01T18:28:41.930Z,99964.55
2018-02-01T18:31:12.059Z,99969.43
2018-02-01T18:33:42.206Z,99969.03
2018-02-01T18:36:12.105Z,99978.42
2018-02-01T18:38:41.974Z,99987.39
2018-02-01T18:41:11.910Z,99988.44
2018-02-01T18:43:41.904Z,99991.34
2018-02-01T18:46:11.792Z,99988.71
2018-02-01T18:48:41.677Z,99991.08
2018-02-01T18:51:11.680Z,99997.41
2018-02-01T18:53:41.628Z,99993.00
2018-02-01T18:56:11.594Z,99995.40
2018-02-01T18:58:42.269Z,99995.28
2018-02-01T19:01:12.947Z,99997.00
2018-02-01T19:03:43.028Z,100004.55
2018-02-01T19:06:14.305Z,100006.39
2018-02-01T19:08:44.219Z,100012.46
2018-02-01T19:11:14.068Z,100012.97
2018-02-01T19:13:44.314Z,100012.98
2018-02-01T19:16:14.991Z,100013.75
2018-02-01T19:18:45.062Z,100010.61
2018-02-01T19:21:15.360Z,100004.92
2018-02-01T19:23:46.237Z,100002.41
2018-02-01T19:26:16.358Z,100006.78
2018-02-01T19:28:46.357Z,100007.84
2018-02-01T19:31:16.334Z,100004.52
2018-02-01T19:33:46.348Z,100002.69
2018-02-01T19:36:16.325Z,100001.23
2018-02-01T19:38:46.569Z,100002.69
2018-02-01T19:41:16.704Z,100002.28
2018-02-01T19:43:47.067Z,99991.34
2018-02-01T19:46:17.829Z,99995.70
2018-02-01T19:48:47.934Z,100001.47
2018-02-01T19:51:18.005Z,100001.19
2018-02-01T19:53:48.147Z,100002.65
2018-02-01T19:56:18.844Z,100006.21
2018-02-01T19:58:48.652Z,100016.77
2018-02-01T20:01:18.775Z,100011.73
2018-02-01T20:03:48.855Z,100008.16
2018-02-01T20:06:18.888Z,100003.72
2018-02-01T20:08:48.762Z,100013.47
2018-02-01T20:11:19.531Z,100013.20
2018-02-01T20:13:49.513Z,100015.31
2018-02-01T20:16:19.660Z,99999.73
2018-02-01T20:18:49.685Z,100007.11
2018-02-01T20:21:19.724Z,100004.50
2018-02-01T20:23:49.952Z,99997.89
2018-02-01T20:26:19.903Z,99996.69
2018-02-01T20:28:49.909Z,99992.47
2018-02-01T20:31:19.893Z,99999.55
2018-02-01T20:33:51.970Z,99991.27
2018-02-01T20:36:21.890Z,99994.31
2018-02-01T20:38:51.974Z,99993.65
2018-02-01T20:41:22.099Z,99988.11
2018-02-01T20:43:53.085Z,99991.13
2018-02-01T20:46:25.157Z,99989.67
2018-02-01T20:48:55.881Z,99993.74
2018-02-01T20:51:26.015Z,99985.87
2018-02-01T20:53:55.957Z,99997.62
2018-02-01T20:56:26.044Z,100001.56
2018-02-01T20:58:55.949Z,99996.13
2018-02-01T21:01:26.315Z,99995.07
2018-02-01T21:03:56.910Z,99996.78
2018-02-01T21:06:27.297Z,99995.44
2018-02-01T21:08:57.374Z,99996.37
2018-02-01T21:11:27.300Z,99989.92
2018-02-01T21:13:57.605Z,99993.23
2018-02-01T21:16:27.623Z,99990.95
2018-02-01T21:18:57.745Z,99992.63
2018-02-01T21:21:27.564Z,99989.58
2018-02-01T21:23:57.621Z,99989.83
2018-02-01T21:26:28.365Z,99987.20
2018-02-01T21:28:58.367Z,99986.41
2018-02-01T21:31:28.425Z,99988.40
2018-02-01T21:33:58.589Z,99993.11
2018-02-01T21:36:28.996Z,99995.50
2018-02-01T21:38:58.877Z,99988.13
2018-02-01T21:41:28.993Z,99990.08
2018-02-01T21:43:59.698Z,99987.46
2018-02-01T21:46:29.741Z,99994.33
2018-02-01T21:49:00.406Z,99989.59
2018-02-01T21:51:30.577Z,99990.48
2018-02-01T21:54:01.345Z,99996.98
2018-02-01T21:56:31.240Z,99998.19
2018-02-01T21:59:02.709Z,100000.69
2018-02-01T22:01:35.311Z,99994.61
2018-02-01T22:04:05.867Z,100001.48
2018-02-01T22:06:36.824Z,100002.00
2018-02-01T22:09:07.083Z,99998.31
2018-02-01T22:11:37.048Z,100002.00
2018-02-01T22:14:07.888Z,99999.23
2018-02-01T22:16:37.943Z,100007.14
2018-02-01T22:19:07.847Z,99997.38
2018-02-01T22:21:37.673Z,100000.94
2018-02-01T22:24:07.574Z,99994.99
2018-02-01T22:26:37.673Z,99995.78
2018-02-01T22:29:09.016Z,99997.64
2018-02-01T22:31:39.728Z,99998.81
2018-02-01T22:34:09.849Z,99994.34
2018-02-01T22:36:39.708Z,100003.30
2018-02-01T22:39:09.796Z,99999.61
2018-02-01T22:41:40.027Z,99991.57
2018-02-01T22:44:10.038Z,99994.98
2018-02-01T22:46:40.025Z,99995.39
2018-02-01T22:49:09.788Z,99995.26
2018-02-01T22:51:40.385Z,99992.37
2018-02-01T22:54:11.349Z,100002.80
2018-02-01T22:56:42.042Z,100006.87
2018-02-01T22:59:11.974Z,100007.29
2018-02-01T23:01:42.406Z,100013.47
2018-02-01T23:04:12.398Z,100008.33
2018-02-01T23:06:42.216Z,100007.02
2018-02-01T23:09:12.474Z,100002.26
2018-02-01T23:11:43.154Z,100003.32
2018-02-01T23:14:13.354Z,100001.05
2018-02-01T23:16:43.290Z,100005.42
2018-02-01T23:19:13.238Z,100000.69
2018-02-01T23:21:43.337Z,99997.00
2018-02-01T23:24:13.374Z,99993.03
2018-02-01T23:26:43.305Z,99993.56
2018-02-01T23:29:13.455Z,99988.16
2018-02-01T23:31:44.049Z,99992.25
2018-02-01T23:34:15.745Z,99988.44
2018-02-01T23:36:45.689Z,99985.37
2018-02-01T23:39:15.706Z,99991.61
2018-02-01T23:41:45.777Z,99988.95
2018-02-01T23:44:16.501Z,99983.14
2018-02-01T23:46:46.492Z,99984.88
2018-02-01T23:49:16.328Z,99974.97
2018-02-01T23:51:46.359Z,99979.47
2018-02-01T23:54:16.229Z,99973.92
2018-02-01T23:56:46.118Z,99970.35
2018-02-01T23:59:16.099Z,99970.52
